createdAt,value
2022-12-14T00:02:02.744Z,8.27
2022-12-14T00:04:31.412Z,6.63
2022-12-14T00:07:01.020Z,7.57
2022-12-14T00:09:29.256Z,8.13
2022-12-14T00:11:57.496Z,7.33
2022-12-14T00:14:25.979Z,7.83
2022-12-14T00:16:54.200Z,7.17
2022-12-14T00:19:22.524Z,6.53
2022-12-14T00:21:50.740Z,7.17
2022-12-14T00:24:20.588Z,7.50
2022-12-14T00:26:48.792Z,6.83
2022-12-14T00:29:17.041Z,7.03
2022-12-14T00:31:48.842Z,6.57
2022-12-14T00:34:17.726Z,7.20
2022-12-14T00:36:45.951Z,7.37
2022-12-14T00:39:14.221Z,7.37
2022-12-14T00:41:44.331Z,7.67
2022-12-14T00:44:12.563Z,7.07
2022-12-14T00:46:40.946Z,7.37
2022-12-14T00:49:09.259Z,7.00
2022-12-14T00:51:37.652Z,7.57
2022-12-14T00:54:06.465Z,8.03
2022-12-14T00:56:34.776Z,6.53
2022-12-14T00:59:04.496Z,7.20
2022-12-14T01:01:32.920Z,7.27
2022-12-14T01:04:15.178Z,6.93
2022-12-14T01:06:44.077Z,6.33
2022-12-14T01:09:12.523Z,6.60
2022-12-14T01:11:41.201Z,6.73
2022-12-14T01:14:12.297Z,6.57
2022-12-14T01:16:40.816Z,6.23
2022-12-14T01:19:09.329Z,6.70
2022-12-14T01:21:37.647Z,7.33
2022-12-14T01:24:07.177Z,7.00
2022-12-14T01:26:40.925Z,6.30
2022-12-14T01:29:12.985Z,6.87
2022-12-14T01:31:41.366Z,6.23
2022-12-14T01:34:10.971Z,6.07
2022-12-14T01:36:39.972Z,7.17
2022-12-14T01:39:13.743Z,6.90
2022-12-14T01:41:44.594Z,6.13
2022-12-14T01:44:55.457Z,6.43
2022-12-14T01:47:30.728Z,6.57
2022-12-14T01:50:04.817Z,7.10
2022-12-14T01:52:39.645Z,6.93
2022-12-14T01:55:12.634Z,7.40
2022-12-14T01:57:46.421Z,6.33
2022-12-14T02:00:17.377Z,7.17
2022-12-14T02:02:51.000Z,6.43
2022-12-14T02:05:22.218Z,6.17
2022-12-14T02:07:53.296Z,6.97
2022-12-14T02:10:23.873Z,8.00
2022-12-14T02:13:00.647Z,6.80
2022-12-14T02:15:31.689Z,6.93
2022-12-14T02:18:00.615Z,6.23
2022-12-14T02:20:36.453Z,7.20
2022-12-14T02:23:38.985Z,6.70
2022-12-14T02:26:47.952Z,6.93
2022-12-14T02:29:49.129Z,7.10
2022-12-14T02:32:43.370Z,7.43
2022-12-14T02:35:20.066Z,7.03
2022-12-14T02:37:55.257Z,6.37
2022-12-14T02:40:31.092Z,7.23
2022-12-14T02:43:13.141Z,6.70
2022-12-14T02:45:47.919Z,6.53
2022-12-14T02:48:20.578Z,6.97
2022-12-14T02:50:58.414Z,7.20
2022-12-14T02:53:32.541Z,7.43
2022-12-14T02:56:07.450Z,7.63
2022-12-14T02:58:40.372Z,6.50
2022-12-14T03:01:14.821Z,7.00
2022-12-14T03:03:44.041Z,7.30
2022-12-14T03:06:26.155Z,7.13
2022-12-14T03:09:01.057Z,6.83
2022-12-14T03:11:36.762Z,7.20
2022-12-14T03:14:11.813Z,7.00
2022-12-14T03:16:44.580Z,7.17
2022-12-14T03:19:19.381Z,6.97
2022-12-14T03:21:51.616Z,7.03
2022-12-14T03:24:29.081Z,6.87
2022-12-14T03:27:02.736Z,7.07
2022-12-14T03:29:38.864Z,7.30
2022-12-14T03:32:12.908Z,7.67
2022-12-14T03:34:47.380Z,7.23
2022-12-14T03:37:19.776Z,7.30
2022-12-14T03:39:49.158Z,7.50
2022-12-14T03:42:24.740Z,7.80
2022-12-14T03:45:03.345Z,7.70
2022-12-14T03:47:59.708Z,8.43
2022-12-14T03:50:37.110Z,7.07
2022-12-14T03:53:11.141Z,7.57
2022-12-14T03:55:49.266Z,6.33
2022-12-14T03:58:37.613Z,7.60
2022-12-14T04:01:12.762Z,7.97
2022-12-14T04:03:50.334Z,7.53
2022-12-14T04:06:29.427Z,7.30
2022-12-14T04:09:08.826Z,7.27
2022-12-14T04:12:01.426Z,6.97
2022-12-14T04:14:53.838Z,7.57
2022-12-14T04:17:51.035Z,7.03
2022-12-14T04:20:25.577Z,7.30
2022-12-14T04:23:00.000Z,7.67
2022-12-14T04:25:53.543Z,6.83
2022-12-14T04:28:42.572Z,6.63
2022-12-14T04:31:13.682Z,7.57
2022-12-14T04:33:51.219Z,7.03
2022-12-14T04:36:27.014Z,7.37
2022-12-14T04:39:01.396Z,8.03
2022-12-14T04:41:34.422Z,7.90
2022-12-14T04:44:09.932Z,7.60
2022-12-14T04:46:40.847Z,7.30
2022-12-14T04:49:18.318Z,7.80
2022-12-14T04:51:58.226Z,8.07
2022-12-14T04:54:35.733Z,7.50
2022-12-14T04:57:17.384Z,7.63
2022-12-14T04:59:48.240Z,7.30
2022-12-14T05:02:26.868Z,8.40
2022-12-14T05:05:08.930Z,7.43
2022-12-14T05:07:49.548Z,7.70
2022-12-14T05:10:24.272Z,7.10
2022-12-14T05:13:01.994Z,7.47
2022-12-14T05:15:36.358Z,8.03
2022-12-14T05:18:05.936Z,8.03
2022-12-14T05:20:34.264Z,8.23
2022-12-14T05:23:03.929Z,7.80
2022-12-14T05:25:32.399Z,8.97
2022-12-14T05:28:00.662Z,8.10
2022-12-14T05:30:28.961Z,8.10
2022-12-14T05:32:57.440Z,8.80
2022-12-14T05:35:25.811Z,8.50
2022-12-14T05:37:54.055Z,8.57
2022-12-14T05:40:23.721Z,8.10
2022-12-14T05:42:55.671Z,8.80
2022-12-14T05:45:24.413Z,8.60
2022-12-14T05:47:52.636Z,8.80
2022-12-14T05:50:20.862Z,8.80
2022-12-14T05:52:49.096Z,8.57
2022-12-14T05:55:18.249Z,7.60
2022-12-14T05:57:47.867Z,8.70
2022-12-14T06:00:17.235Z,8.40
2022-12-14T06:02:45.521Z,9.57
2022-12-14T06:05:13.825Z,9.10
2022-12-14T06:07:42.060Z,8.47
2022-12-14T06:10:11.148Z,9.27
2022-12-14T06:12:39.502Z,8.67
2022-12-14T06:15:10.359Z,10.20
2022-12-14T06:17:38.614Z,10.37
2022-12-14T06:20:08.548Z,10.50
2022-12-14T06:22:36.767Z,9.73
2022-12-14T06:25:05.552Z,10.00
2022-12-14T06:27:33.873Z,12.47
2022-12-14T06:30:02.249Z,9.73
2022-12-14T06:32:32.270Z,10.00
2022-12-14T06:35:00.516Z,9.93
2022-12-14T06:37:28.753Z,9.73
2022-12-14T06:39:57.006Z,9.80
2022-12-14T06:42:25.283Z,8.90
2022-12-14T06:44:53.520Z,14.63
2022-12-14T06:47:21.786Z,9.60
2022-12-14T06:49:51.642Z,10.27
2022-12-14T06:52:26.541Z,9.57
2022-12-14T06:54:55.191Z,10.43
2022-12-14T06:57:23.557Z,10.73
2022-12-14T06:59:52.085Z,10.43
2022-12-14T07:02:20.809Z,10.10
2022-12-14T07:04:50.684Z,10.40
2022-12-14T07:07:18.955Z,10.40
2022-12-14T07:09:47.241Z,10.27
2022-12-14T07:12:15.518Z,10.90
2022-12-14T07:14:43.777Z,9.33
2022-12-14T07:17:12.131Z,9.60
2022-12-14T07:19:40.365Z,10.13
2022-12-14T07:22:09.953Z,9.53
2022-12-14T07:24:38.357Z,11.47
2022-12-14T07:27:06.753Z,10.60
2022-12-14T07:29:35.231Z,10.17
2022-12-14T07:32:03.618Z,9.83
2022-12-14T07:34:32.083Z,10.50
2022-12-14T07:37:00.395Z,10.53
2022-12-14T07:39:30.247Z,10.87
2022-12-14T07:41:58.467Z,10.40
2022-12-14T07:44:26.726Z,10.40
2022-12-14T07:46:55.378Z,10.57
2022-12-14T07:49:23.662Z,11.30
2022-12-14T07:51:52.997Z,10.50
2022-12-14T07:54:21.533Z,9.47
2022-12-14T07:56:51.170Z,10.57
2022-12-14T07:59:19.563Z,10.03
2022-12-14T08:01:47.944Z,12.10
2022-12-14T08:04:19.267Z,11.20
2022-12-14T08:06:48.822Z,10.63
2022-12-14T08:09:20.127Z,11.90
2022-12-14T08:11:49.967Z,12.13
2022-12-14T08:14:20.100Z,10.50
2022-12-14T08:16:50.675Z,10.87
2022-12-14T08:19:20.170Z,12.10
2022-12-14T08:21:48.616Z,12.37
2022-12-14T08:24:17.847Z,12.07
2022-12-14T08:26:49.027Z,12.63
2022-12-14T08:29:19.905Z,11.63
2022-12-14T08:31:48.388Z,12.37
2022-12-14T08:34:22.047Z,12.33
2022-12-14T08:36:50.965Z,11.60
2022-12-14T08:39:19.260Z,12.10
2022-12-14T08:41:47.574Z,12.23
2022-12-14T08:44:18.134Z,11.87
2022-12-14T08:46:48.007Z,12.83
2022-12-14T08:49:16.560Z,12.43
2022-12-14T08:51:44.859Z,12.10
2022-12-14T08:54:13.178Z,11.30
2022-12-14T08:56:41.516Z,11.97
2022-12-14T08:59:24.484Z,11.50
2022-12-14T09:01:59.965Z,12.10
2022-12-14T09:04:28.570Z,12.00
2022-12-14T09:06:57.521Z,12.20
2022-12-14T09:09:25.917Z,14.37
2022-12-14T09:11:54.192Z,12.57
2022-12-14T09:14:22.553Z,13.93
2022-12-14T09:16:50.825Z,12.03
2022-12-14T09:19:20.554Z,13.20
2022-12-14T09:21:48.830Z,12.97
2022-12-14T09:24:17.093Z,12.70
2022-12-14T09:26:47.015Z,12.57
2022-12-14T09:29:17.036Z,13.37
2022-12-14T09:31:45.985Z,12.80
2022-12-14T09:34:14.393Z,13.17
2022-12-14T09:36:44.036Z,13.07
2022-12-14T09:39:14.924Z,11.60
2022-12-14T09:42:00.533Z,12.87
2022-12-14T09:44:49.812Z,12.07
2022-12-14T09:47:22.275Z,13.17
2022-12-14T09:49:55.807Z,13.63
2022-12-14T09:52:35.677Z,12.53
2022-12-14T09:55:08.721Z,11.93
2022-12-14T09:57:41.083Z,12.80
2022-12-14T10:00:18.141Z,13.27
2022-12-14T10:03:17.056Z,12.87
2022-12-14T10:06:19.034Z,13.40
2022-12-14T10:08:55.985Z,13.07
2022-12-14T10:11:33.405Z,14.10
2022-12-14T10:14:17.080Z,13.63
2022-12-14T10:16:55.725Z,14.00
2022-12-14T10:19:39.284Z,12.60
2022-12-14T10:22:14.038Z,13.00
2022-12-14T10:24:46.474Z,13.47
2022-12-14T10:27:23.535Z,13.37
2022-12-14T10:30:00.414Z,11.93
2022-12-14T10:32:34.769Z,12.27
2022-12-14T10:35:14.981Z,13.00
2022-12-14T10:37:46.413Z,12.53
2022-12-14T10:40:33.532Z,13.10
2022-12-14T10:43:24.840Z,12.73
2022-12-14T10:46:01.074Z,13.77
2022-12-14T10:48:40.974Z,14.03
2022-12-14T10:51:15.375Z,12.07
2022-12-14T10:53:51.770Z,12.50
2022-12-14T10:56:27.665Z,12.63
2022-12-14T10:59:26.310Z,12.67
2022-12-14T11:02:02.378Z,13.20
2022-12-14T11:04:35.146Z,13.90
2022-12-14T11:07:07.602Z,12.43
2022-12-14T11:09:37.360Z,13.47
2022-12-14T11:12:09.730Z,14.43
2022-12-14T11:14:38.526Z,13.63
2022-12-14T11:17:06.979Z,13.13
2022-12-14T11:19:37.538Z,13.97
2022-12-14T11:22:17.145Z,12.53
2022-12-14T11:24:51.390Z,14.17
2022-12-14T11:27:22.958Z,13.33
2022-12-14T11:29:52.488Z,14.30
2022-12-14T11:32:24.717Z,14.47
2022-12-14T11:34:59.343Z,15.30
2022-12-14T11:37:30.245Z,14.27
2022-12-14T11:40:01.237Z,16.13
2022-12-14T11:42:31.446Z,18.80
2022-12-14T11:45:30.365Z,19.97
2022-12-14T11:48:22.308Z,15.87
2022-12-14T11:50:54.643Z,14.77
2022-12-14T11:53:24.353Z,14.43
2022-12-14T11:55:58.666Z,17.37
2022-12-14T11:58:33.637Z,16.20
2022-12-14T12:01:06.544Z,16.50
2022-12-14T12:03:39.342Z,16.37
2022-12-14T12:06:12.470Z,16.47
2022-12-14T12:08:42.520Z,14.97
2022-12-14T12:11:19.438Z,14.77
2022-12-14T12:13:53.881Z,14.50
2022-12-14T12:16:24.413Z,17.83
2022-12-14T12:18:57.584Z,14.67
2022-12-14T12:21:30.419Z,15.97
2022-12-14T12:24:04.192Z,15.43
2022-12-14T12:26:38.031Z,17.73
2022-12-14T12:29:15.099Z,16.90
2022-12-14T12:31:49.912Z,15.53
2022-12-14T12:34:24.262Z,17.07
2022-12-14T12:37:24.878Z,15.97
2022-12-14T12:39:47.008Z,14.30
2022-12-14T12:42:29.419Z,17.10
2022-12-14T12:45:06.735Z,15.40
2022-12-14T12:47:47.219Z,17.17
2022-12-14T12:50:19.652Z,18.07
2022-12-14T12:53:02.432Z,16.60
2022-12-14T12:55:36.764Z,17.23
2022-12-14T12:58:09.792Z,16.03
2022-12-14T13:00:41.662Z,18.27
2022-12-14T13:03:18.579Z,17.27
2022-12-14T13:05:49.017Z,18.03
2022-12-14T13:08:25.306Z,17.90
2022-12-14T13:11:24.580Z,17.30
2022-12-14T13:13:49.452Z,18.87
2022-12-14T13:16:27.350Z,19.80
2022-12-14T13:19:25.479Z,17.73
2022-12-14T13:21:54.582Z,18.20
2022-12-14T13:24:25.048Z,17.33
2022-12-14T13:27:35.027Z,16.80
2022-12-14T13:30:22.232Z,17.57
2022-12-14T13:33:17.185Z,17.37
2022-12-14T13:36:33.651Z,17.03
2022-12-14T13:39:46.534Z,18.30
2022-12-14T13:42:32.061Z,17.47
2022-12-14T13:45:02.692Z,16.50
2022-12-14T13:47:40.059Z,19.60
2022-12-14T13:50:35.784Z,16.90
2022-12-14T13:53:12.738Z,15.90
2022-12-14T13:55:51.803Z,19.23
2022-12-14T13:58:23.875Z,16.87
2022-12-14T14:01:02.498Z,16.67
2022-12-14T14:04:04.921Z,16.47
2022-12-14T14:06:41.216Z,15.10
2022-12-14T14:10:01.087Z,17.47
2022-12-14T14:12:43.300Z,15.37
2022-12-14T14:15:34.366Z,17.13
2022-12-14T14:18:24.984Z,14.73
2022-12-14T14:20:58.858Z,15.27
2022-12-14T14:23:57.810Z,14.67
2022-12-14T14:26:29.579Z,15.10
2022-12-14T14:29:26.398Z,16.07
2022-12-14T14:32:00.839Z,29.03
2022-12-14T14:34:50.134Z,18.30
2022-12-14T14:37:30.534Z,17.43
2022-12-14T14:40:43.788Z,15.83
2022-12-14T14:43:26.691Z,16.00
2022-12-14T14:45:57.929Z,15.57
2022-12-14T14:48:34.557Z,17.20
2022-12-14T14:51:08.272Z,15.93
2022-12-14T14:53:37.855Z,16.93
2022-12-14T14:56:29.107Z,17.63
2022-12-14T14:59:41.241Z,16.77
2022-12-14T15:02:35.350Z,16.30
2022-12-14T15:05:33.140Z,16.20
2022-12-14T15:07:56.712Z,16.77
2022-12-14T15:10:33.824Z,17.37
2022-12-14T15:13:08.810Z,18.00
2022-12-14T15:15:42.944Z,17.23
2022-12-14T15:18:22.698Z,17.57
2022-12-14T15:20:59.260Z,18.10
2022-12-14T15:23:35.754Z,18.27
2022-12-14T15:26:16.525Z,17.30
2022-12-14T15:28:51.617Z,17.50
2022-12-14T15:31:29.239Z,16.57
2022-12-14T15:33:58.932Z,17.23
2022-12-14T15:36:32.062Z,18.93
2022-12-14T15:39:00.960Z,20.83
2022-12-14T15:41:33.241Z,19.83
2022-12-14T15:44:03.187Z,20.67
2022-12-14T15:46:34.433Z,20.27
2022-12-14T15:49:05.580Z,20.73
2022-12-14T15:51:37.242Z,20.47
2022-12-14T15:54:08.723Z,23.43
2022-12-14T15:56:40.676Z,20.40
2022-12-14T15:59:18.255Z,17.90
2022-12-14T16:01:58.958Z,18.37
2022-12-14T16:04:32.851Z,19.87
2022-12-14T16:07:09.011Z,19.47
2022-12-14T16:09:41.527Z,18.07
2022-12-14T16:12:19.276Z,18.57
2022-12-14T16:14:54.270Z,18.57
2022-12-14T16:17:27.822Z,20.20
2022-12-14T16:19:59.941Z,21.10
2022-12-14T16:22:30.259Z,22.17
2022-12-14T16:25:19.251Z,20.37
2022-12-14T16:27:50.831Z,20.97
2022-12-14T16:30:30.709Z,19.33
2022-12-14T16:33:18.835Z,20.97
2022-12-14T16:35:49.177Z,18.80
2022-12-14T16:38:19.078Z,21.50
2022-12-14T16:40:57.215Z,21.50
2022-12-14T16:43:30.973Z,21.20
2022-12-14T16:46:16.128Z,21.40
2022-12-14T16:49:01.960Z,19.67
2022-12-14T16:52:06.874Z,22.33
2022-12-14T16:54:29.582Z,20.93
2022-12-14T16:57:02.866Z,20.20
2022-12-14T16:59:44.035Z,18.93
2022-12-14T17:02:33.553Z,19.20
2022-12-14T17:05:07.253Z,20.07
2022-12-14T17:07:38.593Z,18.60
2022-12-14T17:10:15.213Z,20.43
2022-12-14T17:12:45.232Z,18.63
2022-12-14T17:15:15.210Z,19.40
2022-12-14T17:17:49.528Z,18.00
2022-12-14T17:20:24.230Z,19.00
2022-12-14T17:22:52.986Z,17.77
2022-12-14T17:25:22.130Z,19.03
2022-12-14T17:27:50.415Z,20.17
2022-12-14T17:30:21.590Z,22.70
2022-12-14T17:32:52.216Z,23.60
2022-12-14T17:35:24.889Z,24.10
2022-12-14T17:37:53.424Z,23.70
2022-12-14T17:40:21.783Z,21.87
2022-12-14T17:42:54.889Z,22.47
2022-12-14T17:45:26.239Z,21.37
2022-12-14T17:47:56.591Z,20.53
2022-12-14T17:50:26.058Z,22.43
2022-12-14T17:52:54.342Z,22.10
2022-12-14T17:55:26.769Z,22.07
2022-12-14T17:57:55.859Z,21.30
2022-12-14T18:00:44.531Z,22.23
2022-12-14T18:03:17.004Z,21.70
2022-12-14T18:05:49.378Z,22.10
2022-12-14T18:08:17.919Z,22.97
2022-12-14T18:10:47.050Z,22.10
2022-12-14T18:13:15.530Z,20.90
2022-12-14T18:15:49.915Z,24.20
2022-12-14T18:18:21.344Z,27.13
2022-12-14T18:20:54.032Z,29.50
2022-12-14T18:23:22.968Z,29.90
2022-12-14T18:25:53.901Z,28.70
2022-12-14T18:28:22.817Z,26.73
2022-12-14T18:30:55.467Z,27.60
2022-12-14T18:33:27.337Z,27.17
2022-12-14T18:35:57.771Z,29.13
2022-12-14T18:38:26.936Z,28.83
2022-12-14T18:40:58.608Z,28.37
2022-12-14T18:43:29.518Z,27.87
2022-12-14T18:45:59.244Z,26.87
2022-12-14T18:48:29.044Z,29.63
2022-12-14T18:50:57.574Z,29.03
2022-12-14T18:53:27.039Z,29.77
2022-12-14T18:55:55.624Z,28.73
2022-12-14T18:58:26.800Z,26.97
2022-12-14T19:00:58.475Z,25.10
2022-12-14T19:03:31.078Z,24.57
2022-12-14T19:06:42.372Z,24.33
2022-12-14T19:08:57.066Z,23.60
2022-12-14T19:11:31.848Z,22.67
2022-12-14T19:14:00.720Z,21.90
2022-12-14T19:16:29.598Z,21.67
2022-12-14T19:18:59.716Z,21.23
2022-12-14T19:21:29.421Z,22.73
2022-12-14T19:23:59.763Z,25.63
2022-12-14T19:26:29.247Z,28.30
2022-12-14T19:28:58.540Z,27.93
2022-12-14T19:31:27.189Z,26.67
2022-12-14T19:33:55.857Z,25.50
2022-12-14T19:36:26.172Z,27.63
2022-12-14T19:38:54.455Z,29.27
2022-12-14T19:41:22.746Z,24.57
2022-12-14T19:43:51.103Z,25.30
2022-12-14T19:46:19.388Z,28.07
2022-12-14T19:48:47.832Z,28.13
2022-12-14T19:51:21.507Z,27.20
2022-12-14T19:53:52.867Z,24.80
2022-12-14T19:56:21.121Z,26.37
2022-12-14T19:58:49.472Z,24.03
2022-12-14T20:01:19.148Z,22.97
2022-12-14T20:03:49.038Z,23.50
2022-12-14T20:06:17.574Z,21.87
2022-12-14T20:08:49.338Z,24.03
2022-12-14T20:11:20.413Z,23.03
2022-12-14T20:13:54.697Z,20.33
2022-12-14T20:16:25.863Z,21.47
2022-12-14T20:18:55.143Z,22.80
2022-12-14T20:21:23.727Z,23.30
2022-12-14T20:23:52.110Z,22.17
2022-12-14T20:26:23.650Z,22.10
2022-12-14T20:28:55.114Z,22.57
2022-12-14T20:31:24.478Z,23.13
2022-12-14T20:33:53.250Z,22.57
2022-12-14T20:36:22.564Z,21.73
2022-12-14T20:38:57.670Z,20.20
2022-12-14T20:41:27.451Z,22.00
2022-12-14T20:43:56.001Z,21.50
2022-12-14T20:46:31.523Z,20.93
2022-12-14T20:49:02.123Z,21.40
2022-12-14T20:51:31.515Z,21.43
2022-12-14T20:54:00.261Z,19.60
2022-12-14T20:56:30.084Z,22.00
2022-12-14T20:58:58.832Z,22.70
2022-12-14T21:01:27.581Z,19.83
2022-12-14T21:03:57.673Z,22.40
2022-12-14T21:06:26.379Z,22.13
2022-12-14T21:09:05.281Z,23.07
2022-12-14T21:11:54.877Z,21.87
2022-12-14T21:14:25.712Z,19.97
2022-12-14T21:16:54.325Z,22.27
2022-12-14T21:19:22.935Z,21.60
2022-12-14T21:21:54.029Z,22.03
2022-12-14T21:25:01.221Z,21.73
2022-12-14T21:27:19.677Z,19.40
2022-12-14T21:29:48.336Z,20.57
2022-12-14T21:32:18.991Z,21.07
2022-12-14T21:34:48.363Z,20.00
2022-12-14T21:37:16.942Z,20.57
2022-12-14T21:39:51.890Z,19.47
2022-12-14T21:42:21.955Z,19.40
2022-12-14T21:44:52.528Z,19.27
2022-12-14T21:47:24.012Z,20.20
2022-12-14T21:49:52.213Z,19.37
2022-12-14T21:52:24.025Z,20.03
2022-12-14T21:54:52.331Z,20.47
2022-12-14T21:57:41.527Z,19.97
2022-12-14T22:00:12.534Z,20.80
2022-12-14T22:02:42.596Z,18.73
2022-12-14T22:05:11.686Z,18.47
2022-12-14T22:07:40.098Z,19.83
2022-12-14T22:10:09.161Z,19.00
2022-12-14T22:12:38.756Z,18.63
2022-12-14T22:15:08.308Z,19.27
2022-12-14T22:17:36.592Z,20.70
2022-12-14T22:20:05.720Z,19.20
2022-12-14T22:22:34.596Z,19.87
2022-12-14T22:25:03.516Z,19.03
2022-12-14T22:27:31.704Z,19.70
2022-12-14T22:30:01.378Z,19.77
2022-12-14T22:32:29.714Z,20.30
2022-12-14T22:34:57.992Z,18.43
2022-12-14T22:37:26.226Z,20.20
2022-12-14T22:39:54.525Z,18.17
2022-12-14T22:42:22.748Z,19.30
2022-12-14T22:44:51.012Z,19.07
2022-12-14T22:47:20.693Z,18.57
2022-12-14T22:49:48.986Z,20.13
2022-12-14T22:52:22.933Z,20.67
2022-12-14T22:54:52.647Z,19.53
2022-12-14T22:57:23.003Z,18.30
2022-12-14T22:59:57.204Z,18.73
2022-12-14T23:02:26.976Z,17.43
2022-12-14T23:04:55.402Z,19.53
2022-12-14T23:07:23.755Z,19.20
2022-12-14T23:10:09.488Z,18.47
2022-12-14T23:12:55.005Z,17.33
2022-12-14T23:15:41.031Z,18.63
2022-12-14T23:18:28.091Z,17.30
2022-12-14T23:21:14.280Z,17.20
2022-12-14T23:24:03.198Z,18.83
2022-12-14T23:26:49.627Z,18.13
2022-12-14T23:29:35.679Z,18.60
2022-12-14T23:32:21.355Z,17.27
2022-12-14T23:35:08.569Z,17.53
2022-12-14T23:37:54.151Z,17.70
2022-12-14T23:40:39.812Z,17.57
2022-12-14T23:43:29.281Z,17.77
2022-12-14T23:46:15.354Z,17.53
2022-12-14T23:49:01.340Z,18.47
2022-12-14T23:51:48.365Z,18.23
2022-12-14T23:54:34.444Z,18.53
2022-12-14T23:57:22.755Z,18.43
